sensor_id;sensor_type;location;lat;lon;timestamp;temperature;humidity
3478;DHT22;37937;61.490;23.506;2022-07-11T00:02:00;15.60;99.90
3478;DHT22;37937;61.490;23.506;2022-07-11T00:04:29;15.60;99.90
3478;DHT22;37937;61.490;23.506;2022-07-11T00:06:55;15.60;99.90
3478;DHT22;37937;61.490;23.506;2022-07-11T00:09:21;15.60;99.90
3478;DHT22;37937;61.490;23.506;2022-07-11T00:11:47;15.60;99.90
3478;DHT22;37937;61.490;23.506;2022-07-11T00:14:13;15.60;99.90
3478;DHT22;37937;61.490;23.506;2022-07-11T00:16:39;15.60;99.90
3478;DHT22;37937;61.490;23.506;2022-07-11T00:19:05;15.50;99.90
3478;DHT22;37937;61.490;23.506;2022-07-11T00:21:31;15.60;99.90
3478;DHT22;37937;61.490;23.506;2022-07-11T00:23:57;15.50;99.90
3478;DHT22;37937;61.490;23.506;2022-07-11T00:26:22;15.50;99.90
3478;DHT22;37937;61.490;23.506;2022-07-11T00:28:48;15.50;99.90
3478;DHT22;37937;61.490;23.506;2022-07-11T00:31:14;15.50;99.90
3478;DHT22;37937;61.490;23.506;2022-07-11T00:33:39;15.50;99.90
3478;DHT22;37937;61.490;23.506;2022-07-11T00:36:05;15.40;99.90
3478;DHT22;37937;61.490;23.506;2022-07-11T00:38:31;15.50;99.90
3478;DHT22;37937;61.490;23.506;2022-07-11T00:40:56;15.40;99.90
3478;DHT22;37937;61.490;23.506;2022-07-11T00:43:35;15.40;99.90
3478;DHT22;37937;61.490;23.506;2022-07-11T00:46:01;15.40;99.90
3478;DHT22;37937;61.490;23.506;2022-07-11T00:48:27;15.40;99.90
3478;DHT22;37937;61.490;23.506;2022-07-11T00:50:53;15.40;99.90
3478;DHT22;37937;61.490;23.506;2022-07-11T00:53:19;15.40;99.90
3478;DHT22;37937;61.490;23.506;2022-07-11T00:55:45;15.40;99.90
3478;DHT22;37937;61.490;23.506;2022-07-11T00:58:11;15.40;99.90
3478;DHT22;37937;61.490;23.506;2022-07-11T01:00:37;15.40;99.90
3478;DHT22;37937;61.490;23.506;2022-07-11T01:03:03;15.40;99.90
3478;DHT22;37937;61.490;23.506;2022-07-11T01:05:29;15.40;99.90
3478;DHT22;37937;61.490;23.506;2022-07-11T01:07:55;15.40;99.90
3478;DHT22;37937;61.490;23.506;2022-07-11T01:10:20;15.40;99.90
3478;DHT22;37937;61.490;23.506;2022-07-11T01:12:46;15.30;99.90
3478;DHT22;37937;61.490;23.506;2022-07-11T01:15:13;15.30;99.90
3478;DHT22;37937;61.490;23.506;2022-07-11T01:17:39;15.30;99.90
3478;DHT22;37937;61.490;23.506;2022-07-11T01:20:05;15.30;99.90
3478;DHT22;37937;61.490;23.506;2022-07-11T01:22:31;15.30;99.90
3478;DHT22;37937;61.490;23.506;2022-07-11T01:24:58;15.30;99.90
3478;DHT22;37937;61.490;23.506;2022-07-11T01:27:24;15.30;99.90
3478;DHT22;37937;61.490;23.506;2022-07-11T01:29:49;15.40;99.90
3478;DHT22;37937;61.490;23.506;2022-07-11T01:32:17;15.40;99.90
3478;DHT22;37937;61.490;23.506;2022-07-11T01:34:43;15.30;99.90
3478;DHT22;37937;61.490;23.506;2022-07-11T01:37:09;15.40;99.90
3478;DHT22;37937;61.490;23.506;2022-07-11T01:39:35;15.40;99.90
3478;DHT22;37937;61.490;23.506;2022-07-11T01:42:00;15.40;99.90
3478;DHT22;37937;61.490;23.506;2022-07-11T01:44:26;15.40;99.90
3478;DHT22;37937;61.490;23.506;2022-07-11T01:46:51;15.40;99.90
3478;DHT22;37937;61.490;23.506;2022-07-11T01:49:17;15.40;99.90
3478;DHT22;37937;61.490;23.506;2022-07-11T01:51:43;15.50;99.90
3478;DHT22;37937;61.490;23.506;2022-07-11T01:54:08;15.50;99.90
3478;DHT22;37937;61.490;23.506;2022-07-11T01:56:34;15.50;99.90
3478;DHT22;37937;61.490;23.506;2022-07-11T01:59:00;15.50;99.90
3478;DHT22;37937;61.490;23.506;2022-07-11T02:01:26;15.50;99.90
3478;DHT22;37937;61.490;23.506;2022-07-11T02:03:52;15.50;99.90
3478;DHT22;37937;61.490;23.506;2022-07-11T02:06:19;15.50;99.90
3478;DHT22;37937;61.490;23.506;2022-07-11T02:08:44;15.50;99.90
3478;DHT22;37937;61.490;23.506;2022-07-11T02:11:10;15.50;99.90
3478;DHT22;37937;61.490;23.506;2022-07-11T02:13:36;15.60;99.90
3478;DHT22;37937;61.490;23.506;2022-07-11T02:16:01;15.60;99.90
3478;DHT22;37937;61.490;23.506;2022-07-11T02:18:28;15.60;99.90
3478;DHT22;37937;61.490;23.506;2022-07-11T02:20:53;15.60;99.90
3478;DHT22;37937;61.490;23.506;2022-07-11T02:23:19;15.60;99.90
3478;DHT22;37937;61.490;23.506;2022-07-11T02:25:46;15.60;99.90
3478;DHT22;37937;61.490;23.506;2022-07-11T02:28:12;15.60;99.90
3478;DHT22;37937;61.490;23.506;2022-07-11T02:30:38;15.60;99.90
3478;DHT22;37937;61.490;23.506;2022-07-11T02:33:04;15.70;99.90
3478;DHT22;37937;61.490;23.506;2022-07-11T02:35:30;15.70;99.90
3478;DHT22;37937;61.490;23.506;2022-07-11T02:37:56;15.60;99.90
3478;DHT22;37937;61.490;23.506;2022-07-11T02:40:21;15.70;99.90
3478;DHT22;37937;61.490;23.506;2022-07-11T02:42:47;15.70;99.90
3478;DHT22;37937;61.490;23.506;2022-07-11T02:45:13;15.70;99.90
3478;DHT22;37937;61.490;23.506;2022-07-11T02:47:39;15.70;99.90
3478;DHT22;37937;61.490;23.506;2022-07-11T02:50:06;15.70;99.90
3478;DHT22;37937;61.490;23.506;2022-07-11T02:52:31;15.70;99.90
3478;DHT22;37937;61.490;23.506;2022-07-11T02:54:58;15.80;99.90
3478;DHT22;37937;61.490;23.506;2022-07-11T02:57:24;15.70;99.90
3478;DHT22;37937;61.490;23.506;2022-07-11T02:59:49;15.70;99.90
3478;DHT22;37937;61.490;23.506;2022-07-11T03:02:15;15.70;99.90
3478;DHT22;37937;61.490;23.506;2022-07-11T03:04:41;15.80;99.90
3478;DHT22;37937;61.490;23.506;2022-07-11T03:07:07;15.80;99.90
3478;DHT22;37937;61.490;23.506;2022-07-11T03:09:32;15.80;99.90
3478;DHT22;37937;61.490;23.506;2022-07-11T03:11:58;15.80;99.90
3478;DHT22;37937;61.490;23.506;2022-07-11T03:14:24;15.80;99.90
3478;DHT22;37937;61.490;23.506;2022-07-11T03:16:49;15.80;99.90
3478;DHT22;37937;61.490;23.506;2022-07-11T03:19:15;15.90;99.90
3478;DHT22;37937;61.490;23.506;2022-07-11T03:21:40;15.90;99.90
3478;DHT22;37937;61.490;23.506;2022-07-11T03:24:06;15.90;99.90
3478;DHT22;37937;61.490;23.506;2022-07-11T03:26:32;16.00;99.90
3478;DHT22;37937;61.490;23.506;2022-07-11T03:28:57;16.00;99.90
3478;DHT22;37937;61.490;23.506;2022-07-11T03:31:23;16.10;99.90
3478;DHT22;37937;61.490;23.506;2022-07-11T03:33:48;16.00;99.90
3478;DHT22;37937;61.490;23.506;2022-07-11T03:36:14;16.10;99.90
3478;DHT22;37937;61.490;23.506;2022-07-11T03:38:40;16.10;99.90
3478;DHT22;37937;61.490;23.506;2022-07-11T03:41:05;16.20;99.90
3478;DHT22;37937;61.490;23.506;2022-07-11T03:43:31;16.10;99.90
3478;DHT22;37937;61.490;23.506;2022-07-11T03:45:57;16.00;99.90
3478;DHT22;37937;61.490;23.506;2022-07-11T03:48:22;16.00;99.90
3478;DHT22;37937;61.490;23.506;2022-07-11T03:50:48;16.10;99.90
3478;DHT22;37937;61.490;23.506;2022-07-11T03:53:14;16.10;99.90
3478;DHT22;37937;61.490;23.506;2022-07-11T03:55:40;16.20;99.90
3478;DHT22;37937;61.490;23.506;2022-07-11T03:58:05;16.20;99.90
3478;DHT22;37937;61.490;23.506;2022-07-11T04:00:31;16.30;99.90
3478;DHT22;37937;61.490;23.506;2022-07-11T04:02:57;16.40;99.90
3478;DHT22;37937;61.490;23.506;2022-07-11T04:05:23;16.50;99.90
3478;DHT22;37937;61.490;23.506;2022-07-11T04:07:49;16.60;99.90
3478;DHT22;37937;61.490;23.506;2022-07-11T04:10:14;16.60;99.90
3478;DHT22;37937;61.490;23.506;2022-07-11T04:12:42;16.60;99.90
3478;DHT22;37937;61.490;23.506;2022-07-11T04:15:08;16.70;99.90
3478;DHT22;37937;61.490;23.506;2022-07-11T04:17:34;16.90;99.90
3478;DHT22;37937;61.490;23.506;2022-07-11T04:20:00;16.80;99.90
3478;DHT22;37937;61.490;23.506;2022-07-11T04:22:25;16.90;99.90
3478;DHT22;37937;61.490;23.506;2022-07-11T04:24:51;16.90;99.90
3478;DHT22;37937;61.490;23.506;2022-07-11T04:27:17;17.00;99.90
3478;DHT22;37937;61.490;23.506;2022-07-11T04:29:43;16.90;99.90
3478;DHT22;37937;61.490;23.506;2022-07-11T04:32:08;16.90;99.90
3478;DHT22;37937;61.490;23.506;2022-07-11T04:34:34;16.90;99.90
3478;DHT22;37937;61.490;23.506;2022-07-11T04:36:59;17.00;99.90
3478;DHT22;37937;61.490;23.506;2022-07-11T04:39:25;17.00;99.90
3478;DHT22;37937;61.490;23.506;2022-07-11T04:41:51;17.10;99.90
3478;DHT22;37937;61.490;23.506;2022-07-11T04:44:16;17.10;99.90
3478;DHT22;37937;61.490;23.506;2022-07-11T04:46:42;17.20;99.90
3478;DHT22;37937;61.490;23.506;2022-07-11T04:49:07;17.50;99.90
3478;DHT22;37937;61.490;23.506;2022-07-11T04:51:33;17.70;99.90
3478;DHT22;37937;61.490;23.506;2022-07-11T04:54:00;17.70;99.90
3478;DHT22;37937;61.490;23.506;2022-07-11T04:56:25;17.90;99.90
3478;DHT22;37937;61.490;23.506;2022-07-11T04:58:51;17.90;99.90
3478;DHT22;37937;61.490;23.506;2022-07-11T05:01:17;18.00;99.90
3478;DHT22;37937;61.490;23.506;2022-07-11T05:03:42;18.50;99.90
3478;DHT22;37937;61.490;23.506;2022-07-11T05:06:08;19.40;99.90
3478;DHT22;37937;61.490;23.506;2022-07-11T05:08:33;20.20;99.90
3478;DHT22;37937;61.490;23.506;2022-07-11T05:11:02;21.00;99.90
3478;DHT22;37937;61.490;23.506;2022-07-11T05:13:28;20.80;99.90
3478;DHT22;37937;61.490;23.506;2022-07-11T05:15:53;20.70;99.90
3478;DHT22;37937;61.490;23.506;2022-07-11T05:18:19;21.00;99.90
3478;DHT22;37937;61.490;23.506;2022-07-11T05:20:45;21.60;99.90
3478;DHT22;37937;61.490;23.506;2022-07-11T05:23:10;22.20;99.90
3478;DHT22;37937;61.490;23.506;2022-07-11T05:25:36;22.70;99.90
3478;DHT22;37937;61.490;23.506;2022-07-11T05:28:01;22.40;99.90
3478;DHT22;37937;61.490;23.506;2022-07-11T05:30:27;23.10;99.90
3478;DHT22;37937;61.490;23.506;2022-07-11T05:32:53;23.00;99.90
3478;DHT22;37937;61.490;23.506;2022-07-11T05:35:18;23.00;99.90
3478;DHT22;37937;61.490;23.506;2022-07-11T05:37:44;23.50;99.90
3478;DHT22;37937;61.490;23.506;2022-07-11T05:40:10;23.10;99.90
3478;DHT22;37937;61.490;23.506;2022-07-11T05:42:35;23.50;99.90
3478;DHT22;37937;61.490;23.506;2022-07-11T05:45:03;24.10;99.90
3478;DHT22;37937;61.490;23.506;2022-07-11T05:47:29;24.10;99.90
3478;DHT22;37937;61.490;23.506;2022-07-11T05:49:54;24.70;99.90
3478;DHT22;37937;61.490;23.506;2022-07-11T05:52:20;25.00;90.90
3478;DHT22;37937;61.490;23.506;2022-07-11T05:54:46;25.30;83.20
3478;DHT22;37937;61.490;23.506;2022-07-11T05:57:11;25.10;85.70
3478;DHT22;37937;61.490;23.506;2022-07-11T05:59:37;25.10;80.50
3478;DHT22;37937;61.490;23.506;2022-07-11T06:02:03;25.10;81.20
3478;DHT22;37937;61.490;23.506;2022-07-11T06:04:29;24.70;60.00
3478;DHT22;37937;61.490;23.506;2022-07-11T06:06:54;25.20;68.70
3478;DHT22;37937;61.490;23.506;2022-07-11T06:09:20;24.20;92.70
3478;DHT22;37937;61.490;23.506;2022-07-11T06:11:46;24.20;93.30
3478;DHT22;37937;61.490;23.506;2022-07-11T06:14:11;25.10;67.20
3478;DHT22;37937;61.490;23.506;2022-07-11T06:16:37;25.20;68.60
3478;DHT22;37937;61.490;23.506;2022-07-11T06:19:02;25.20;56.90
3478;DHT22;37937;61.490;23.506;2022-07-11T06:21:28;24.70;71.90
3478;DHT22;37937;61.490;23.506;2022-07-11T06:23:54;25.80;62.50
3478;DHT22;37937;61.490;23.506;2022-07-11T06:26:22;25.50;41.10
3478;DHT22;37937;61.490;23.506;2022-07-11T06:28:48;24.90;56.80
3478;DHT22;37937;61.490;23.506;2022-07-11T06:31:13;25.50;48.30
3478;DHT22;37937;61.490;23.506;2022-07-11T06:33:39;25.80;47.00
3478;DHT22;37937;61.490;23.506;2022-07-11T06:36:05;26.00;34.90
3478;DHT22;37937;61.490;23.506;2022-07-11T06:38:32;25.90;35.50
3478;DHT22;37937;61.490;23.506;2022-07-11T06:40:57;25.20;34.90
3478;DHT22;37937;61.490;23.506;2022-07-11T06:43:23;24.80;46.90
3478;DHT22;37937;61.490;23.506;2022-07-11T06:45:50;25.30;41.90
3478;DHT22;37937;61.490;23.506;2022-07-11T06:48:15;25.10;55.40
3478;DHT22;37937;61.490;23.506;2022-07-11T06:50:41;25.20;49.50
3478;DHT22;37937;61.490;23.506;2022-07-11T06:53:07;25.60;30.40
3478;DHT22;37937;61.490;23.506;2022-07-11T06:55:33;25.30;39.40
3478;DHT22;37937;61.490;23.506;2022-07-11T06:57:59;25.50;41.10
3478;DHT22;37937;61.490;23.506;2022-07-11T07:00:25;25.30;37.50
3478;DHT22;37937;61.490;23.506;2022-07-11T07:02:51;25.20;45.60
3478;DHT22;37937;61.490;23.506;2022-07-11T07:05:16;24.60;47.50
3478;DHT22;37937;61.490;23.506;2022-07-11T07:07:42;24.90;45.70
3478;DHT22;37937;61.490;23.506;2022-07-11T07:10:08;25.00;37.80
3478;DHT22;37937;61.490;23.506;2022-07-11T07:12:37;24.70;33.00
3478;DHT22;37937;61.490;23.506;2022-07-11T07:15:03;24.80;40.20
3478;DHT22;37937;61.490;23.506;2022-07-11T07:17:29;24.80;31.60
3478;DHT22;37937;61.490;23.506;2022-07-11T07:19:55;24.70;39.30
3478;DHT22;37937;61.490;23.506;2022-07-11T07:22:21;25.00;40.00
3478;DHT22;37937;61.490;23.506;2022-07-11T07:24:46;24.50;47.80
3478;DHT22;37937;61.490;23.506;2022-07-11T07:27:12;25.10;40.60
3478;DHT22;37937;61.490;23.506;2022-07-11T07:29:38;25.20;45.60
3478;DHT22;37937;61.490;23.506;2022-07-11T07:32:04;25.40;30.70
3478;DHT22;37937;61.490;23.506;2022-07-11T07:34:29;25.10;42.50
3478;DHT22;37937;61.490;23.506;2022-07-11T07:36:55;25.50;37.80
3478;DHT22;37937;61.490;23.506;2022-07-11T07:39:20;24.30;47.10
3478;DHT22;37937;61.490;23.506;2022-07-11T07:41:46;24.40;42.10
3478;DHT22;37937;61.490;23.506;2022-07-11T07:44:12;25.50;34.20
3478;DHT22;37937;61.490;23.506;2022-07-11T07:46:37;25.70;32.80
3478;DHT22;37937;61.490;23.506;2022-07-11T07:49:03;25.10;33.80
3478;DHT22;37937;61.490;23.506;2022-07-11T07:51:29;25.30;30.00
3478;DHT22;37937;61.490;23.506;2022-07-11T07:53:54;24.80;20.60
3478;DHT22;37937;61.490;23.506;2022-07-11T07:56:20;25.10;21.60
3478;DHT22;37937;61.490;23.506;2022-07-11T07:58:46;25.70;27.00
3478;DHT22;37937;61.490;23.506;2022-07-11T08:01:11;25.60;17.00
3478;DHT22;37937;61.490;23.506;2022-07-11T08:03:55;25.70;17.30
3478;DHT22;37937;61.490;23.506;2022-07-11T08:06:21;25.40;22.90
3478;DHT22;37937;61.490;23.506;2022-07-11T08:08:47;25.00;22.70
3478;DHT22;37937;61.490;23.506;2022-07-11T08:11:13;25.40;28.70
3478;DHT22;37937;61.490;23.506;2022-07-11T08:13:38;25.90;16.10
3478;DHT22;37937;61.490;23.506;2022-07-11T08:16:04;25.70;24.50
3478;DHT22;37937;61.490;23.506;2022-07-11T08:18:31;25.70;26.20
3478;DHT22;37937;61.490;23.506;2022-07-11T08:20:57;26.00;16.50
3478;DHT22;37937;61.490;23.506;2022-07-11T08:23:22;25.70;13.60
3478;DHT22;37937;61.490;23.506;2022-07-11T08:25:48;25.50;22.00
3478;DHT22;37937;61.490;23.506;2022-07-11T08:28:14;25.90;29.20
3478;DHT22;37937;61.490;23.506;2022-07-11T08:30:39;26.20;17.90
3478;DHT22;37937;61.490;23.506;2022-07-11T08:33:05;25.80;15.80
3478;DHT22;37937;61.490;23.506;2022-07-11T08:35:30;25.80;20.80
3478;DHT22;37937;61.490;23.506;2022-07-11T08:37:56;26.10;22.30
3478;DHT22;37937;61.490;23.506;2022-07-11T08:40:21;26.20;28.10
3478;DHT22;37937;61.490;23.506;2022-07-11T08:42:47;26.20;13.60
3478;DHT22;37937;61.490;23.506;2022-07-11T08:45:13;26.20;17.00
3478;DHT22;37937;61.490;23.506;2022-07-11T08:47:39;26.70;12.20
3478;DHT22;37937;61.490;23.506;2022-07-11T08:50:05;26.70;15.00
3478;DHT22;37937;61.490;23.506;2022-07-11T08:52:34;26.00;19.60
3478;DHT22;37937;61.490;23.506;2022-07-11T08:54:59;25.80;22.00
3478;DHT22;37937;61.490;23.506;2022-07-11T08:57:25;25.60;21.10
3478;DHT22;37937;61.490;23.506;2022-07-11T08:59:54;25.40;21.30
3478;DHT22;37937;61.490;23.506;2022-07-11T09:02:21;25.40;24.50
3478;DHT22;37937;61.490;23.506;2022-07-11T09:04:47;25.40;22.30
3478;DHT22;37937;61.490;23.506;2022-07-11T09:07:13;25.20;28.50
3478;DHT22;37937;61.490;23.506;2022-07-11T09:09:39;24.60;26.20
3478;DHT22;37937;61.490;23.506;2022-07-11T09:12:09;25.00;39.60
3478;DHT22;37937;61.490;23.506;2022-07-11T09:14:35;24.40;30.30
3478;DHT22;37937;61.490;23.506;2022-07-11T09:17:05;24.50;31.20
3478;DHT22;37937;61.490;23.506;2022-07-11T09:19:34;24.10;28.80
3478;DHT22;37937;61.490;23.506;2022-07-11T09:22:09;23.80;35.40
3478;DHT22;37937;61.490;23.506;2022-07-11T09:32:42;23.90;31.30
3478;DHT22;37937;61.490;23.506;2022-07-11T09:35:10;24.20;32.70
3478;DHT22;37937;61.490;23.506;2022-07-11T09:37:42;24.70;23.30
3478;DHT22;37937;61.490;23.506;2022-07-11T09:40:14;25.10;28.40
3478;DHT22;37937;61.490;23.506;2022-07-11T09:42:47;25.20;22.00
3478;DHT22;37937;61.490;23.506;2022-07-11T09:45:13;25.10;16.70
3478;DHT22;37937;61.490;23.506;2022-07-11T09:47:42;24.80;22.60
3478;DHT22;37937;61.490;23.506;2022-07-11T09:50:08;24.60;27.60
3478;DHT22;37937;61.490;23.506;2022-07-11T09:52:33;24.40;32.20
3478;DHT22;37937;61.490;23.506;2022-07-11T09:55:00;24.40;22.90
3478;DHT22;37937;61.490;23.506;2022-07-11T09:57:33;24.20;22.50
3478;DHT22;37937;61.490;23.506;2022-07-11T10:00:00;24.30;19.80
3478;DHT22;37937;61.490;23.506;2022-07-11T10:02:26;24.20;21.30
3478;DHT22;37937;61.490;23.506;2022-07-11T10:04:52;24.50;31.40
3478;DHT22;37937;61.490;23.506;2022-07-11T10:07:18;24.30;18.30
3478;DHT22;37937;61.490;23.506;2022-07-11T10:09:43;24.10;22.80
3478;DHT22;37937;61.490;23.506;2022-07-11T10:12:09;24.00;17.80
3478;DHT22;37937;61.490;23.506;2022-07-11T10:14:35;24.00;16.60
3478;DHT22;37937;61.490;23.506;2022-07-11T10:25:54;25.30;16.40
3478;DHT22;37937;61.490;23.506;2022-07-11T10:30:46;25.10;13.20
3478;DHT22;37937;61.490;23.506;2022-07-11T10:33:13;25.40;12.50
3478;DHT22;37937;61.490;23.506;2022-07-11T10:35:40;25.80;14.00
3478;DHT22;37937;61.490;23.506;2022-07-11T10:38:05;25.80;9.70
3478;DHT22;37937;61.490;23.506;2022-07-11T10:43:06;26.20;13.50
3478;DHT22;37937;61.490;23.506;2022-07-11T10:45:48;26.60;9.30
3478;DHT22;37937;61.490;23.506;2022-07-11T10:48:14;26.90;3.10
3478;DHT22;37937;61.490;23.506;2022-07-11T10:50:39;27.40;1.10
3478;DHT22;37937;61.490;23.506;2022-07-11T10:53:09;27.40;1.00
3478;DHT22;37937;61.490;23.506;2022-07-11T10:55:35;26.90;1.00
3478;DHT22;37937;61.490;23.506;2022-07-11T11:00:29;26.70;1.60
3478;DHT22;37937;61.490;23.506;2022-07-11T11:03:06;27.20;2.10
3478;DHT22;37937;61.490;23.506;2022-07-11T11:10:52;28.10;3.30
3478;DHT22;37937;61.490;23.506;2022-07-11T11:13:17;27.90;1.00
3478;DHT22;37937;61.490;23.506;2022-07-11T11:23:44;27.70;3.30
3478;DHT22;37937;61.490;23.506;2022-07-11T11:26:11;27.70;1.00
3478;DHT22;37937;61.490;23.506;2022-07-11T11:28:38;27.20;1.00
3478;DHT22;37937;61.490;23.506;2022-07-11T11:31:04;27.60;1.00
3478;DHT22;37937;61.490;23.506;2022-07-11T11:33:32;28.00;1.00
3478;DHT22;37937;61.490;23.506;2022-07-11T11:36:01;27.50;1.00
3478;DHT22;37937;61.490;23.506;2022-07-11T11:38:27;27.40;1.00
3478;DHT22;37937;61.490;23.506;2022-07-11T11:40:52;27.90;1.00
3478;DHT22;37937;61.490;23.506;2022-07-11T11:43:21;27.80;1.00
3478;DHT22;37937;61.490;23.506;2022-07-11T11:45:48;27.20;1.00
3478;DHT22;37937;61.490;23.506;2022-07-11T11:48:25;27.40;4.70
3478;DHT22;37937;61.490;23.506;2022-07-11T11:50:51;27.30;5.90
3478;DHT22;37937;61.490;23.506;2022-07-11T11:53:17;27.20;1.00
3478;DHT22;37937;61.490;23.506;2022-07-11T11:55:42;26.60;1.30
3478;DHT22;37937;61.490;23.506;2022-07-11T11:58:08;26.70;8.30
3478;DHT22;37937;61.490;23.506;2022-07-11T12:00:33;25.90;1.00
3478;DHT22;37937;61.490;23.506;2022-07-11T12:02:59;25.50;1.00
3478;DHT22;37937;61.490;23.506;2022-07-11T12:05:25;25.50;1.10
3478;DHT22;37937;61.490;23.506;2022-07-11T12:07:50;25.20;4.70
3478;DHT22;37937;61.490;23.506;2022-07-11T12:10:16;25.30;9.70
3478;DHT22;37937;61.490;23.506;2022-07-11T12:12:42;25.40;12.40
3478;DHT22;37937;61.490;23.506;2022-07-11T12:15:27;25.70;11.60
3478;DHT22;37937;61.490;23.506;2022-07-11T12:17:57;25.50;14.90
3478;DHT22;37937;61.490;23.506;2022-07-11T12:23:00;25.30;9.60
3478;DHT22;37937;61.490;23.506;2022-07-11T12:25:26;25.20;7.50
3478;DHT22;37937;61.490;23.506;2022-07-11T12:27:57;25.10;13.40
3478;DHT22;37937;61.490;23.506;2022-07-11T12:30:23;25.20;20.50
3478;DHT22;37937;61.490;23.506;2022-07-11T12:33:02;24.90;14.80
3478;DHT22;37937;61.490;23.506;2022-07-11T12:35:28;25.30;15.80
3478;DHT22;37937;61.490;23.506;2022-07-11T12:37:54;25.50;14.80
3478;DHT22;37937;61.490;23.506;2022-07-11T12:40:20;25.50;10.70
3478;DHT22;37937;61.490;23.506;2022-07-11T12:42:46;25.20;14.20
3478;DHT22;37937;61.490;23.506;2022-07-11T12:45:13;25.10;16.40
3478;DHT22;37937;61.490;23.506;2022-07-11T12:47:41;25.00;15.50
3478;DHT22;37937;61.490;23.506;2022-07-11T12:52:39;24.80;16.20
3478;DHT22;37937;61.490;23.506;2022-07-11T12:55:06;25.20;16.10
3478;DHT22;37937;61.490;23.506;2022-07-11T12:57:33;25.00;16.30
3478;DHT22;37937;61.490;23.506;2022-07-11T13:00:14;25.50;14.70
3478;DHT22;37937;61.490;23.506;2022-07-11T13:02:48;25.60;10.40
3478;DHT22;37937;61.490;23.506;2022-07-11T13:05:14;25.20;12.90
3478;DHT22;37937;61.490;23.506;2022-07-11T13:07:41;25.10;16.10
3478;DHT22;37937;61.490;23.506;2022-07-11T13:10:25;25.30;14.20
3478;DHT22;37937;61.490;23.506;2022-07-11T13:12:52;25.00;19.70
3478;DHT22;37937;61.490;23.506;2022-07-11T13:15:18;25.20;19.60
3478;DHT22;37937;61.490;23.506;2022-07-11T13:17:47;25.10;15.60
3478;DHT22;37937;61.490;23.506;2022-07-11T13:20:24;25.20;12.50
3478;DHT22;37937;61.490;23.506;2022-07-11T13:22:50;25.20;8.40
3478;DHT22;37937;61.490;23.506;2022-07-11T13:25:17;25.00;4.70
3478;DHT22;37937;61.490;23.506;2022-07-11T13:27:43;25.10;11.00
3478;DHT22;37937;61.490;23.506;2022-07-11T13:30:09;25.20;10.30
3478;DHT22;37937;61.490;23.506;2022-07-11T13:32:37;25.50;8.80
3478;DHT22;37937;61.490;23.506;2022-07-11T13:35:03;25.70;10.00
3478;DHT22;37937;61.490;23.506;2022-07-11T13:37:29;25.70;7.40
3478;DHT22;37937;61.490;23.506;2022-07-11T13:39:54;25.60;6.20
3478;DHT22;37937;61.490;23.506;2022-07-11T13:42:20;25.40;8.30
3478;DHT22;37937;61.490;23.506;2022-07-11T13:44:45;25.70;9.50
3478;DHT22;37937;61.490;23.506;2022-07-11T13:47:11;25.50;7.20
3478;DHT22;37937;61.490;23.506;2022-07-11T13:49:39;25.50;13.00
3478;DHT22;37937;61.490;23.506;2022-07-11T13:52:04;25.60;10.20
3478;DHT22;37937;61.490;23.506;2022-07-11T13:54:30;25.20;9.40
3478;DHT22;37937;61.490;23.506;2022-07-11T13:56:56;25.20;12.20
3478;DHT22;37937;61.490;23.506;2022-07-11T13:59:21;25.10;10.20
3478;DHT22;37937;61.490;23.506;2022-07-11T14:01:47;25.00;11.90
3478;DHT22;37937;61.490;23.506;2022-07-11T14:04:12;25.20;6.50
3478;DHT22;37937;61.490;23.506;2022-07-11T14:06:38;25.20;8.00
3478;DHT22;37937;61.490;23.506;2022-07-11T14:09:05;25.00;3.50
3478;DHT22;37937;61.490;23.506;2022-07-11T14:11:31;25.00;10.40
3478;DHT22;37937;61.490;23.506;2022-07-11T14:13:57;25.20;6.70
3478;DHT22;37937;61.490;23.506;2022-07-11T14:16:23;25.00;5.30
3478;DHT22;37937;61.490;23.506;2022-07-11T14:18:49;25.00;5.20
3478;DHT22;37937;61.490;23.506;2022-07-11T14:21:15;25.40;15.10
3478;DHT22;37937;61.490;23.506;2022-07-11T14:23:40;25.00;20.00
3478;DHT22;37937;61.490;23.506;2022-07-11T14:26:06;24.90;28.10
3478;DHT22;37937;61.490;23.506;2022-07-11T14:28:32;25.10;30.50
3478;DHT22;37937;61.490;23.506;2022-07-11T14:31:01;25.20;26.50
3478;DHT22;37937;61.490;23.506;2022-07-11T14:33:26;25.10;27.00
3478;DHT22;37937;61.490;23.506;2022-07-11T14:35:52;25.20;30.50
3478;DHT22;37937;61.490;23.506;2022-07-11T14:38:17;24.90;24.60
3478;DHT22;37937;61.490;23.506;2022-07-11T14:40:43;24.70;32.30
3478;DHT22;37937;61.490;23.506;2022-07-11T14:43:09;24.60;25.80
3478;DHT22;37937;61.490;23.506;2022-07-11T14:45:34;24.80;32.00
3478;DHT22;37937;61.490;23.506;2022-07-11T14:48:00;24.60;21.80
3478;DHT22;37937;61.490;23.506;2022-07-11T14:50:25;24.40;26.50
3478;DHT22;37937;61.490;23.506;2022-07-11T14:52:52;24.00;31.30
3478;DHT22;37937;61.490;23.506;2022-07-11T14:55:18;23.90;39.90
3478;DHT22;37937;61.490;23.506;2022-07-11T14:57:43;23.60;45.40
3478;DHT22;37937;61.490;23.506;2022-07-11T15:00:09;23.70;55.50
3478;DHT22;37937;61.490;23.506;2022-07-11T15:02:35;23.70;51.00
3478;DHT22;37937;61.490;23.506;2022-07-11T15:05:19;23.50;48.20
3478;DHT22;37937;61.490;23.506;2022-07-11T15:07:45;23.30;55.30
3478;DHT22;37937;61.490;23.506;2022-07-11T15:10:29;23.50;60.00
3478;DHT22;37937;61.490;23.506;2022-07-11T15:13:13;23.40;61.70
3478;DHT22;37937;61.490;23.506;2022-07-11T15:15:39;23.50;49.60
3478;DHT22;37937;61.490;23.506;2022-07-11T15:18:04;23.50;56.20
3478;DHT22;37937;61.490;23.506;2022-07-11T15:20:30;23.40;57.90
3478;DHT22;37937;61.490;23.506;2022-07-11T15:22:56;23.50;58.30
3478;DHT22;37937;61.490;23.506;2022-07-11T15:25:22;23.20;53.20
3478;DHT22;37937;61.490;23.506;2022-07-11T15:27:47;23.20;57.20
3478;DHT22;37937;61.490;23.506;2022-07-11T15:30:13;23.40;56.60
3478;DHT22;37937;61.490;23.506;2022-07-11T15:32:42;23.40;57.20
3478;DHT22;37937;61.490;23.506;2022-07-11T15:35:08;23.20;59.70
3478;DHT22;37937;61.490;23.506;2022-07-11T15:37:34;23.20;61.00
3478;DHT22;37937;61.490;23.506;2022-07-11T15:39:59;23.30;52.00
3478;DHT22;37937;61.490;23.506;2022-07-11T15:42:25;23.40;56.40
3478;DHT22;37937;61.490;23.506;2022-07-11T15:44:51;23.30;72.40
3478;DHT22;37937;61.490;23.506;2022-07-11T15:47:16;23.30;64.40
3478;DHT22;37937;61.490;23.506;2022-07-11T15:49:42;23.10;52.70
3478;DHT22;37937;61.490;23.506;2022-07-11T15:52:08;23.20;50.30
3478;DHT22;37937;61.490;23.506;2022-07-11T15:54:34;23.30;56.00
3478;DHT22;37937;61.490;23.506;2022-07-11T15:56:59;23.40;58.20
3478;DHT22;37937;61.490;23.506;2022-07-11T15:59:25;23.40;56.00
3478;DHT22;37937;61.490;23.506;2022-07-11T16:01:50;23.50;48.80
3478;DHT22;37937;61.490;23.506;2022-07-11T16:04:16;23.70;54.30
3478;DHT22;37937;61.490;23.506;2022-07-11T16:06:42;23.70;54.10
3478;DHT22;37937;61.490;23.506;2022-07-11T16:09:07;23.60;38.30
3478;DHT22;37937;61.490;23.506;2022-07-11T16:11:33;23.50;38.30